sensor_id;sensor_type;location;lat;lon;timestamp;P1;durP1;ratioP1;P2;durP2;ratioP2
6463;SDS011;3265;42.694;23.282;2023-06-26T00:00:03;28.13;;;20.52;;
6463;SDS011;3265;42.694;23.282;2023-06-26T00:02:32;27.42;;;20.50;;
6463;SDS011;3265;42.694;23.282;2023-06-26T00:04:59;25.50;;;19.65;;
6463;SDS011;3265;42.694;23.282;2023-06-26T00:07:27;28.80;;;19.90;;
6463;SDS011;3265;42.694;23.282;2023-06-26T00:09:55;28.98;;;19.33;;
6463;SDS011;3265;42.694;23.282;2023-06-26T00:12:22;27.25;;;19.45;;
6463;SDS011;3265;42.694;23.282;2023-06-26T00:14:50;25.58;;;19.15;;
6463;SDS011;3265;42.694;23.282;2023-06-26T00:17:17;26.77;;;18.05;;
6463;SDS011;3265;42.694;23.282;2023-06-26T00:19:44;28.50;;;18.48;;
6463;SDS011;3265;42.694;23.282;2023-06-26T00:22:11;24.30;;;18.77;;
6463;SDS011;3265;42.694;23.282;2023-06-26T00:24:38;25.75;;;17.98;;
6463;SDS011;3265;42.694;23.282;2023-06-26T00:27:05;26.45;;;18.08;;
6463;SDS011;3265;42.694;23.282;2023-06-26T00:29:32;21.88;;;17.25;;
6463;SDS011;3265;42.694;23.282;2023-06-26T00:32:00;25.42;;;18.08;;
6463;SDS011;3265;42.694;23.282;2023-06-26T00:34:27;23.88;;;17.15;;
6463;SDS011;3265;42.694;23.282;2023-06-26T00:36:54;23.55;;;17.67;;
6463;SDS011;3265;42.694;23.282;2023-06-26T00:39:21;21.25;;;16.33;;
6463;SDS011;3265;42.694;23.282;2023-06-26T00:41:50;20.70;;;16.23;;
6463;SDS011;3265;42.694;23.282;2023-06-26T00:44:18;23.05;;;16.73;;
6463;SDS011;3265;42.694;23.282;2023-06-26T00:46:45;21.20;;;15.60;;
6463;SDS011;3265;42.694;23.282;2023-06-26T00:49:13;20.85;;;16.20;;
6463;SDS011;3265;42.694;23.282;2023-06-26T00:51:41;23.33;;;15.20;;
6463;SDS011;3265;42.694;23.282;2023-06-26T00:54:08;22.77;;;15.68;;
6463;SDS011;3265;42.694;23.282;2023-06-26T00:56:34;23.00;;;15.52;;
6463;SDS011;3265;42.694;23.282;2023-06-26T00:59:01;21.45;;;15.70;;
6463;SDS011;3265;42.694;23.282;2023-06-26T01:01:28;20.38;;;15.38;;
6463;SDS011;3265;42.694;23.282;2023-06-26T01:03:55;22.60;;;16.17;;
6463;SDS011;3265;42.694;23.282;2023-06-26T01:06:23;19.42;;;15.20;;
6463;SDS011;3265;42.694;23.282;2023-06-26T01:08:54;20.90;;;15.27;;
6463;SDS011;3265;42.694;23.282;2023-06-26T01:11:21;21.45;;;15.73;;
6463;SDS011;3265;42.694;23.282;2023-06-26T01:13:48;20.20;;;15.35;;
6463;SDS011;3265;42.694;23.282;2023-06-26T01:16:17;21.13;;;15.77;;
6463;SDS011;3265;42.694;23.282;2023-06-26T01:18:45;20.52;;;15.27;;
6463;SDS011;3265;42.694;23.282;2023-06-26T01:21:13;20.88;;;15.60;;
6463;SDS011;3265;42.694;23.282;2023-06-26T01:23:47;23.08;;;14.88;;
6463;SDS011;3265;42.694;23.282;2023-06-26T01:26:25;20.05;;;15.55;;
6463;SDS011;3265;42.694;23.282;2023-06-26T01:28:55;21.77;;;16.25;;
6463;SDS011;3265;42.694;23.282;2023-06-26T01:31:24;18.70;;;15.27;;
6463;SDS011;3265;42.694;23.282;2023-06-26T01:33:55;20.20;;;15.85;;
6463;SDS011;3265;42.694;23.282;2023-06-26T01:36:23;23.27;;;16.23;;
6463;SDS011;3265;42.694;23.282;2023-06-26T01:38:50;21.20;;;15.75;;
6463;SDS011;3265;42.694;23.282;2023-06-26T01:41:17;20.85;;;15.23;;
6463;SDS011;3265;42.694;23.282;2023-06-26T01:43:50;21.63;;;16.02;;
6463;SDS011;3265;42.694;23.282;2023-06-26T01:46:30;21.65;;;16.05;;
6463;SDS011;3265;42.694;23.282;2023-06-26T01:49:06;22.08;;;15.77;;
6463;SDS011;3265;42.694;23.282;2023-06-26T01:51:38;20.30;;;15.98;;
6463;SDS011;3265;42.694;23.282;2023-06-26T01:54:08;22.58;;;16.90;;
6463;SDS011;3265;42.694;23.282;2023-06-26T01:56:38;21.48;;;16.55;;
6463;SDS011;3265;42.694;23.282;2023-06-26T01:59:07;20.80;;;16.33;;
6463;SDS011;3265;42.694;23.282;2023-06-26T02:01:35;22.45;;;16.77;;
6463;SDS011;3265;42.694;23.282;2023-06-26T02:04:02;21.15;;;16.40;;
6463;SDS011;3265;42.694;23.282;2023-06-26T02:06:29;24.92;;;16.48;;
6463;SDS011;3265;42.694;23.282;2023-06-26T02:08:55;20.73;;;16.23;;
6463;SDS011;3265;42.694;23.282;2023-06-26T02:11:22;23.92;;;16.70;;
6463;SDS011;3265;42.694;23.282;2023-06-26T02:13:49;24.17;;;17.67;;
6463;SDS011;3265;42.694;23.282;2023-06-26T02:16:17;23.30;;;17.30;;
6463;SDS011;3265;42.694;23.282;2023-06-26T02:18:44;23.88;;;17.45;;
6463;SDS011;3265;42.694;23.282;2023-06-26T02:21:11;23.55;;;18.27;;
6463;SDS011;3265;42.694;23.282;2023-06-26T02:23:38;24.05;;;17.48;;
6463;SDS011;3265;42.694;23.282;2023-06-26T02:26:04;23.42;;;17.75;;
6463;SDS011;3265;42.694;23.282;2023-06-26T02:28:32;24.50;;;18.13;;
6463;SDS011;3265;42.694;23.282;2023-06-26T02:30:59;24.75;;;18.23;;
6463;SDS011;3265;42.694;23.282;2023-06-26T02:33:27;23.42;;;18.95;;
6463;SDS011;3265;42.694;23.282;2023-06-26T02:35:54;25.25;;;19.20;;
6463;SDS011;3265;42.694;23.282;2023-06-26T02:38:21;26.17;;;19.20;;
6463;SDS011;3265;42.694;23.282;2023-06-26T02:40:47;25.98;;;19.15;;
6463;SDS011;3265;42.694;23.282;2023-06-26T02:43:14;31.23;;;19.60;;
6463;SDS011;3265;42.694;23.282;2023-06-26T02:45:41;26.20;;;19.55;;
6463;SDS011;3265;42.694;23.282;2023-06-26T02:48:08;25.92;;;20.48;;
6463;SDS011;3265;42.694;23.282;2023-06-26T02:50:36;30.30;;;20.40;;
6463;SDS011;3265;42.694;23.282;2023-06-26T02:53:03;26.98;;;19.38;;
6463;SDS011;3265;42.694;23.282;2023-06-26T02:55:30;29.13;;;19.85;;
6463;SDS011;3265;42.694;23.282;2023-06-26T02:57:56;26.90;;;20.60;;
6463;SDS011;3265;42.694;23.282;2023-06-26T03:00:23;24.25;;;19.40;;
6463;SDS011;3265;42.694;23.282;2023-06-26T03:02:50;28.10;;;20.70;;
6463;SDS011;3265;42.694;23.282;2023-06-26T03:05:17;28.67;;;21.25;;
6463;SDS011;3265;42.694;23.282;2023-06-26T03:07:45;27.77;;;20.88;;
6463;SDS011;3265;42.694;23.282;2023-06-26T03:10:12;27.08;;;20.73;;
6463;SDS011;3265;42.694;23.282;2023-06-26T03:12:39;26.98;;;21.75;;
6463;SDS011;3265;42.694;23.282;2023-06-26T03:15:06;27.13;;;21.83;;
6463;SDS011;3265;42.694;23.282;2023-06-26T03:17:33;29.40;;;21.23;;
6463;SDS011;3265;42.694;23.282;2023-06-26T03:20:00;31.27;;;22.25;;
6463;SDS011;3265;42.694;23.282;2023-06-26T03:22:27;30.40;;;21.90;;
6463;SDS011;3265;42.694;23.282;2023-06-26T03:24:55;28.30;;;22.13;;
6463;SDS011;3265;42.694;23.282;2023-06-26T03:27:22;25.80;;;21.63;;
6463;SDS011;3265;42.694;23.282;2023-06-26T03:29:49;31.60;;;23.30;;
6463;SDS011;3265;42.694;23.282;2023-06-26T03:32:16;31.63;;;22.52;;
6463;SDS011;3265;42.694;23.282;2023-06-26T03:34:42;32.80;;;22.27;;
6463;SDS011;3265;42.694;23.282;2023-06-26T03:37:09;32.58;;;22.70;;
6463;SDS011;3265;42.694;23.282;2023-06-26T03:39:36;28.55;;;21.98;;
6463;SDS011;3265;42.694;23.282;2023-06-26T03:42:04;27.58;;;21.92;;
6463;SDS011;3265;42.694;23.282;2023-06-26T03:44:32;28.52;;;21.88;;
6463;SDS011;3265;42.694;23.282;2023-06-26T03:46:59;33.78;;;22.08;;
6463;SDS011;3265;42.694;23.282;2023-06-26T03:49:26;32.63;;;22.58;;
6463;SDS011;3265;42.694;23.282;2023-06-26T03:51:52;29.30;;;23.42;;
6463;SDS011;3265;42.694;23.282;2023-06-26T03:54:19;31.10;;;23.17;;
6463;SDS011;3265;42.694;23.282;2023-06-26T03:56:46;31.42;;;22.10;;
6463;SDS011;3265;42.694;23.282;2023-06-26T03:59:14;30.33;;;21.60;;
6463;SDS011;3265;42.694;23.282;2023-06-26T04:01:41;31.77;;;22.52;;
6463;SDS011;3265;42.694;23.282;2023-06-26T04:04:08;29.38;;;22.08;;
6463;SDS011;3265;42.694;23.282;2023-06-26T04:06:35;27.27;;;21.25;;
6463;SDS011;3265;42.694;23.282;2023-06-26T04:09:01;27.40;;;21.90;;
6463;SDS011;3265;42.694;23.282;2023-06-26T04:11:29;29.92;;;21.52;;
6463;SDS011;3265;42.694;23.282;2023-06-26T04:13:56;29.38;;;21.83;;
6463;SDS011;3265;42.694;23.282;2023-06-26T04:16:25;28.15;;;21.52;;
6463;SDS011;3265;42.694;23.282;2023-06-26T04:18:51;27.77;;;21.20;;
6463;SDS011;3265;42.694;23.282;2023-06-26T04:21:18;26.45;;;21.50;;
6463;SDS011;3265;42.694;23.282;2023-06-26T04:23:45;25.45;;;21.30;;
6463;SDS011;3265;42.694;23.282;2023-06-26T04:26:12;26.90;;;21.23;;
6463;SDS011;3265;42.694;23.282;2023-06-26T04:28:39;27.98;;;21.83;;
6463;SDS011;3265;42.694;23.282;2023-06-26T04:31:06;29.35;;;21.33;;
6463;SDS011;3265;42.694;23.282;2023-06-26T04:33:35;27.30;;;19.90;;
6463;SDS011;3265;42.694;23.282;2023-06-26T04:36:02;26.67;;;20.83;;
6463;SDS011;3265;42.694;23.282;2023-06-26T04:38:29;27.92;;;20.60;;
6463;SDS011;3265;42.694;23.282;2023-06-26T04:40:56;26.13;;;20.60;;
6463;SDS011;3265;42.694;23.282;2023-06-26T04:43:23;26.15;;;20.42;;
6463;SDS011;3265;42.694;23.282;2023-06-26T04:45:49;25.73;;;20.95;;
6463;SDS011;3265;42.694;23.282;2023-06-26T04:48:16;27.13;;;19.95;;
6463;SDS011;3265;42.694;23.282;2023-06-26T04:50:45;27.42;;;20.10;;
6463;SDS011;3265;42.694;23.282;2023-06-26T04:53:17;29.48;;;20.55;;
6463;SDS011;3265;42.694;23.282;2023-06-26T04:55:44;24.88;;;19.65;;
6463;SDS011;3265;42.694;23.282;2023-06-26T04:58:11;24.45;;;19.75;;
6463;SDS011;3265;42.694;23.282;2023-06-26T05:00:38;26.63;;;20.83;;
6463;SDS011;3265;42.694;23.282;2023-06-26T05:03:07;27.13;;;19.42;;
6463;SDS011;3265;42.694;23.282;2023-06-26T05:05:34;27.73;;;19.80;;
6463;SDS011;3265;42.694;23.282;2023-06-26T05:08:14;30.95;;;20.70;;
6463;SDS011;3265;42.694;23.282;2023-06-26T05:10:41;24.05;;;20.17;;
6463;SDS011;3265;42.694;23.282;2023-06-26T05:13:09;24.08;;;20.00;;
6463;SDS011;3265;42.694;23.282;2023-06-26T05:15:36;25.05;;;19.38;;
6463;SDS011;3265;42.694;23.282;2023-06-26T05:18:03;23.70;;;18.73;;
6463;SDS011;3265;42.694;23.282;2023-06-26T05:20:30;22.00;;;18.70;;
6463;SDS011;3265;42.694;23.282;2023-06-26T05:22:57;26.83;;;19.63;;
6463;SDS011;3265;42.694;23.282;2023-06-26T05:25:26;23.95;;;18.98;;
6463;SDS011;3265;42.694;23.282;2023-06-26T05:27:54;25.73;;;19.30;;
6463;SDS011;3265;42.694;23.282;2023-06-26T05:30:24;27.17;;;18.65;;
6463;SDS011;3265;42.694;23.282;2023-06-26T05:32:53;23.20;;;18.42;;
6463;SDS011;3265;42.694;23.282;2023-06-26T05:35:21;26.13;;;19.10;;
6463;SDS011;3265;42.694;23.282;2023-06-26T05:37:49;25.42;;;17.95;;
6463;SDS011;3265;42.694;23.282;2023-06-26T05:40:17;24.00;;;17.80;;
6463;SDS011;3265;42.694;23.282;2023-06-26T05:42:46;26.05;;;18.48;;
6463;SDS011;3265;42.694;23.282;2023-06-26T05:45:14;23.92;;;17.70;;
6463;SDS011;3265;42.694;23.282;2023-06-26T05:47:41;25.02;;;17.58;;
6463;SDS011;3265;42.694;23.282;2023-06-26T05:50:09;20.15;;;16.63;;
6463;SDS011;3265;42.694;23.282;2023-06-26T05:52:37;22.42;;;16.50;;
6463;SDS011;3265;42.694;23.282;2023-06-26T05:55:05;22.95;;;16.60;;
6463;SDS011;3265;42.694;23.282;2023-06-26T05:57:33;22.63;;;16.38;;
6463;SDS011;3265;42.694;23.282;2023-06-26T06:00:05;23.73;;;16.80;;
6463;SDS011;3265;42.694;23.282;2023-06-26T06:02:35;21.75;;;16.83;;
6463;SDS011;3265;42.694;23.282;2023-06-26T06:05:03;19.10;;;16.10;;
6463;SDS011;3265;42.694;23.282;2023-06-26T06:07:30;19.15;;;15.82;;
6463;SDS011;3265;42.694;23.282;2023-06-26T06:09:57;22.73;;;16.73;;
6463;SDS011;3265;42.694;23.282;2023-06-26T06:12:24;23.23;;;16.48;;
6463;SDS011;3265;42.694;23.282;2023-06-26T06:14:51;25.58;;;15.98;;
6463;SDS011;3265;42.694;23.282;2023-06-26T06:17:19;24.10;;;16.33;;
6463;SDS011;3265;42.694;23.282;2023-06-26T06:19:46;19.83;;;15.48;;
6463;SDS011;3265;42.694;23.282;2023-06-26T06:22:13;22.20;;;15.77;;
6463;SDS011;3265;42.694;23.282;2023-06-26T06:24:41;18.20;;;15.55;;
6463;SDS011;3265;42.694;23.282;2023-06-26T06:27:09;21.00;;;15.18;;
6463;SDS011;3265;42.694;23.282;2023-06-26T06:29:35;22.27;;;15.90;;
6463;SDS011;3265;42.694;23.282;2023-06-26T06:32:02;21.95;;;15.98;;
6463;SDS011;3265;42.694;23.282;2023-06-26T06:34:31;21.48;;;15.20;;
6463;SDS011;3265;42.694;23.282;2023-06-26T06:36:58;20.05;;;15.80;;
6463;SDS011;3265;42.694;23.282;2023-06-26T06:39:24;17.98;;;14.90;;
6463;SDS011;3265;42.694;23.282;2023-06-26T06:41:51;17.58;;;14.77;;
6463;SDS011;3265;42.694;23.282;2023-06-26T06:44:18;18.67;;;13.60;;
6463;SDS011;3265;42.694;23.282;2023-06-26T06:46:45;16.73;;;13.55;;
6463;SDS011;3265;42.694;23.282;2023-06-26T06:49:12;15.68;;;13.93;;
6463;SDS011;3265;42.694;23.282;2023-06-26T06:51:40;21.83;;;15.13;;
6463;SDS011;3265;42.694;23.282;2023-06-26T06:54:07;17.33;;;13.25;;
6463;SDS011;3265;42.694;23.282;2023-06-26T06:56:33;16.15;;;13.82;;
6463;SDS011;3265;42.694;23.282;2023-06-26T06:59:00;17.88;;;13.85;;
6463;SDS011;3265;42.694;23.282;2023-06-26T07:01:27;16.40;;;13.27;;
6463;SDS011;3265;42.694;23.282;2023-06-26T07:03:54;15.88;;;11.88;;
6463;SDS011;3265;42.694;23.282;2023-06-26T07:06:20;17.83;;;13.05;;
6463;SDS011;3265;42.694;23.282;2023-06-26T07:08:49;15.90;;;12.30;;
6463;SDS011;3265;42.694;23.282;2023-06-26T07:11:15;19.08;;;12.27;;
6463;SDS011;3265;42.694;23.282;2023-06-26T07:13:42;18.20;;;11.43;;
6463;SDS011;3265;42.694;23.282;2023-06-26T07:16:09;14.43;;;10.88;;
6463;SDS011;3265;42.694;23.282;2023-06-26T07:18:37;15.18;;;10.45;;
6463;SDS011;3265;42.694;23.282;2023-06-26T07:21:04;13.93;;;10.50;;
6463;SDS011;3265;42.694;23.282;2023-06-26T07:23:30;12.50;;;9.38;;
6463;SDS011;3265;42.694;23.282;2023-06-26T07:25:58;14.90;;;9.52;;
6463;SDS011;3265;42.694;23.282;2023-06-26T07:28:25;13.02;;;11.00;;
6463;SDS011;3265;42.694;23.282;2023-06-26T07:30:52;15.18;;;10.73;;
6463;SDS011;3265;42.694;23.282;2023-06-26T07:33:19;11.73;;;9.13;;
6463;SDS011;3265;42.694;23.282;2023-06-26T07:35:46;14.30;;;10.98;;
6463;SDS011;3265;42.694;23.282;2023-06-26T07:38:13;14.02;;;10.48;;
6463;SDS011;3265;42.694;23.282;2023-06-26T07:40:40;14.73;;;10.20;;
6463;SDS011;3265;42.694;23.282;2023-06-26T07:43:08;13.50;;;10.00;;
6463;SDS011;3265;42.694;23.282;2023-06-26T07:45:35;17.52;;;11.27;;
6463;SDS011;3265;42.694;23.282;2023-06-26T07:48:01;14.70;;;10.93;;
6463;SDS011;3265;42.694;23.282;2023-06-26T07:50:28;13.43;;;10.40;;
6463;SDS011;3265;42.694;23.282;2023-06-26T07:52:55;11.05;;;9.88;;
6463;SDS011;3265;42.694;23.282;2023-06-26T07:55:22;12.18;;;9.68;;
6463;SDS011;3265;42.694;23.282;2023-06-26T07:57:49;13.40;;;10.00;;
6463;SDS011;3265;42.694;23.282;2023-06-26T08:00:18;9.63;;;8.63;;
6463;SDS011;3265;42.694;23.282;2023-06-26T08:02:45;12.77;;;9.73;;
6463;SDS011;3265;42.694;23.282;2023-06-26T08:05:12;12.45;;;9.27;;
6463;SDS011;3265;42.694;23.282;2023-06-26T08:07:39;10.95;;;7.78;;
6463;SDS011;3265;42.694;23.282;2023-06-26T08:10:06;11.13;;;7.72;;
6463;SDS011;3265;42.694;23.282;2023-06-26T08:12:33;16.63;;;9.52;;
6463;SDS011;3265;42.694;23.282;2023-06-26T08:15:02;16.90;;;8.77;;
6463;SDS011;3265;42.694;23.282;2023-06-26T08:17:31;12.82;;;8.68;;
6463;SDS011;3265;42.694;23.282;2023-06-26T08:19:58;10.45;;;8.30;;
6463;SDS011;3265;42.694;23.282;2023-06-26T08:22:24;9.15;;;8.25;;
6463;SDS011;3265;42.694;23.282;2023-06-26T08:24:51;16.23;;;8.60;;
6463;SDS011;3265;42.694;23.282;2023-06-26T08:27:18;10.75;;;8.63;;
6463;SDS011;3265;42.694;23.282;2023-06-26T08:29:45;13.45;;;8.45;;
6463;SDS011;3265;42.694;23.282;2023-06-26T08:32:11;9.23;;;7.57;;
6463;SDS011;3265;42.694;23.282;2023-06-26T08:34:40;16.40;;;8.27;;
6463;SDS011;3265;42.694;23.282;2023-06-26T08:37:06;11.93;;;8.30;;
6463;SDS011;3265;42.694;23.282;2023-06-26T08:39:34;12.15;;;8.10;;
6463;SDS011;3265;42.694;23.282;2023-06-26T08:42:01;10.32;;;7.75;;
6463;SDS011;3265;42.694;23.282;2023-06-26T08:44:28;10.35;;;7.60;;
6463;SDS011;3265;42.694;23.282;2023-06-26T08:46:55;9.70;;;7.18;;
6463;SDS011;3265;42.694;23.282;2023-06-26T08:49:25;9.50;;;7.82;;
6463;SDS011;3265;42.694;23.282;2023-06-26T08:51:58;10.15;;;7.63;;
6463;SDS011;3265;42.694;23.282;2023-06-26T08:54:33;11.25;;;7.63;;
6463;SDS011;3265;42.694;23.282;2023-06-26T08:57:03;15.40;;;7.65;;
6463;SDS011;3265;42.694;23.282;2023-06-26T08:59:32;16.48;;;10.70;;
6463;SDS011;3265;42.694;23.282;2023-06-26T09:01:59;11.70;;;10.05;;
6463;SDS011;3265;42.694;23.282;2023-06-26T09:04:27;13.98;;;7.72;;
6463;SDS011;3265;42.694;23.282;2023-06-26T09:06:54;11.45;;;8.30;;
6463;SDS011;3265;42.694;23.282;2023-06-26T09:09:23;12.02;;;8.35;;
6463;SDS011;3265;42.694;23.282;2023-06-26T09:11:49;12.95;;;8.45;;
6463;SDS011;3265;42.694;23.282;2023-06-26T09:14:16;11.63;;;7.63;;
6463;SDS011;3265;42.694;23.282;2023-06-26T09:16:45;9.75;;;7.40;;
6463;SDS011;3265;42.694;23.282;2023-06-26T09:19:12;10.63;;;7.38;;
6463;SDS011;3265;42.694;23.282;2023-06-26T09:21:39;14.15;;;7.38;;
6463;SDS011;3265;42.694;23.282;2023-06-26T09:24:08;15.10;;;6.93;;
6463;SDS011;3265;42.694;23.282;2023-06-26T09:26:36;9.02;;;7.28;;
6463;SDS011;3265;42.694;23.282;2023-06-26T09:29:04;15.82;;;6.90;;
6463;SDS011;3265;42.694;23.282;2023-06-26T09:31:32;11.80;;;7.65;;
6463;SDS011;3265;42.694;23.282;2023-06-26T09:33:59;10.60;;;7.43;;
6463;SDS011;3265;42.694;23.282;2023-06-26T09:36:28;9.50;;;7.78;;
6463;SDS011;3265;42.694;23.282;2023-06-26T09:38:58;9.18;;;6.72;;
6463;SDS011;3265;42.694;23.282;2023-06-26T09:41:26;12.15;;;7.80;;
6463;SDS011;3265;42.694;23.282;2023-06-26T09:43:53;11.10;;;7.43;;
6463;SDS011;3265;42.694;23.282;2023-06-26T09:46:24;8.55;;;6.88;;
6463;SDS011;3265;42.694;23.282;2023-06-26T09:48:57;9.50;;;6.90;;
6463;SDS011;3265;42.694;23.282;2023-06-26T09:51:25;8.60;;;7.05;;
6463;SDS011;3265;42.694;23.282;2023-06-26T09:53:52;11.73;;;6.60;;
6463;SDS011;3265;42.694;23.282;2023-06-26T09:56:19;9.32;;;6.22;;
6463;SDS011;3265;42.694;23.282;2023-06-26T09:58:48;8.07;;;6.68;;
6463;SDS011;3265;42.694;23.282;2023-06-26T10:01:16;8.65;;;6.22;;
6463;SDS011;3265;42.694;23.282;2023-06-26T10:03:43;10.20;;;6.82;;
6463;SDS011;3265;42.694;23.282;2023-06-26T10:06:11;14.38;;;6.70;;
6463;SDS011;3265;42.694;23.282;2023-06-26T10:08:39;7.47;;;6.40;;
6463;SDS011;3265;42.694;23.282;2023-06-26T10:11:07;8.48;;;5.85;;
6463;SDS011;3265;42.694;23.282;2023-06-26T10:13:38;7.60;;;6.20;;
6463;SDS011;3265;42.694;23.282;2023-06-26T10:16:12;8.18;;;6.20;;
6463;SDS011;3265;42.694;23.282;2023-06-26T10:18:43;9.57;;;6.15;;
6463;SDS011;3265;42.694;23.282;2023-06-26T10:21:11;12.25;;;6.53;;
6463;SDS011;3265;42.694;23.282;2023-06-26T10:23:40;8.88;;;6.65;;
6463;SDS011;3265;42.694;23.282;2023-06-26T10:26:09;9.55;;;7.10;;
6463;SDS011;3265;42.694;23.282;2023-06-26T10:28:37;10.18;;;7.05;;
6463;SDS011;3265;42.694;23.282;2023-06-26T10:31:06;8.15;;;6.53;;
6463;SDS011;3265;42.694;23.282;2023-06-26T10:33:35;13.00;;;6.72;;
6463;SDS011;3265;42.694;23.282;2023-06-26T10:36:13;8.23;;;6.60;;
6463;SDS011;3265;42.694;23.282;2023-06-26T10:38:50;11.57;;;6.32;;
6463;SDS011;3265;42.694;23.282;2023-06-26T10:41:21;8.38;;;6.55;;
6463;SDS011;3265;42.694;23.282;2023-06-26T10:43:49;8.75;;;6.72;;
6463;SDS011;3265;42.694;23.282;2023-06-26T10:46:17;9.30;;;6.80;;
6463;SDS011;3265;42.694;23.282;2023-06-26T10:48:59;11.30;;;7.10;;
6463;SDS011;3265;42.694;23.282;2023-06-26T10:51:27;11.93;;;7.22;;
6463;SDS011;3265;42.694;23.282;2023-06-26T10:53:54;18.55;;;7.30;;
6463;SDS011;3265;42.694;23.282;2023-06-26T10:56:21;9.15;;;6.97;;
6463;SDS011;3265;42.694;23.282;2023-06-26T10:59:14;8.25;;;6.65;;
6463;SDS011;3265;42.694;23.282;2023-06-26T11:01:43;17.08;;;7.70;;
6463;SDS011;3265;42.694;23.282;2023-06-26T11:04:12;12.10;;;6.32;;
6463;SDS011;3265;42.694;23.282;2023-06-26T11:06:41;10.77;;;7.07;;
6463;SDS011;3265;42.694;23.282;2023-06-26T11:09:14;15.60;;;6.32;;
6463;SDS011;3265;42.694;23.282;2023-06-26T11:11:59;11.80;;;6.47;;
6463;SDS011;3265;42.694;23.282;2023-06-26T11:14:30;11.40;;;6.50;;
6463;SDS011;3265;42.694;23.282;2023-06-26T11:16:58;8.70;;;6.88;;
6463;SDS011;3265;42.694;23.282;2023-06-26T11:19:29;10.02;;;7.05;;
6463;SDS011;3265;42.694;23.282;2023-06-26T11:22:01;14.60;;;7.10;;
6463;SDS011;3265;42.694;23.282;2023-06-26T11:24:29;9.57;;;6.20;;
6463;SDS011;3265;42.694;23.282;2023-06-26T11:26:59;10.57;;;6.43;;
6463;SDS011;3265;42.694;23.282;2023-06-26T11:29:28;10.20;;;5.68;;
6463;SDS011;3265;42.694;23.282;2023-06-26T11:32:00;10.18;;;6.40;;
6463;SDS011;3265;42.694;23.282;2023-06-26T11:34:35;11.18;;;7.00;;
6463;SDS011;3265;42.694;23.282;2023-06-26T11:37:03;9.30;;;6.47;;
6463;SDS011;3265;42.694;23.282;2023-06-26T11:39:30;7.43;;;6.05;;
6463;SDS011;3265;42.694;23.282;2023-06-26T11:41:58;10.50;;;6.00;;
6463;SDS011;3265;42.694;23.282;2023-06-26T11:44:28;10.00;;;7.05;;
6463;SDS011;3265;42.694;23.282;2023-06-26T11:46:56;12.85;;;6.80;;
6463;SDS011;3265;42.694;23.282;2023-06-26T11:49:23;12.35;;;7.18;;
6463;SDS011;3265;42.694;23.282;2023-06-26T11:51:53;8.77;;;6.88;;
6463;SDS011;3265;42.694;23.282;2023-06-26T11:54:23;9.98;;;6.57;;
6463;SDS011;3265;42.694;23.282;2023-06-26T11:56:54;8.93;;;6.38;;
6463;SDS011;3265;42.694;23.282;2023-06-26T11:59:23;8.40;;;6.22;;
6463;SDS011;3265;42.694;23.282;2023-06-26T12:01:50;11.10;;;6.22;;
6463;SDS011;3265;42.694;23.282;2023-06-26T12:04:18;9.88;;;6.40;;
6463;SDS011;3265;42.694;23.282;2023-06-26T12:06:46;11.40;;;6.80;;
6463;SDS011;3265;42.694;23.282;2023-06-26T12:09:16;10.88;;;7.43;;
6463;SDS011;3265;42.694;23.282;2023-06-26T12:11:46;7.78;;;6.47;;
6463;SDS011;3265;42.694;23.282;2023-06-26T12:14:14;8.50;;;6.20;;
6463;SDS011;3265;42.694;23.282;2023-06-26T12:16:43;12.60;;;6.60;;
6463;SDS011;3265;42.694;23.282;2023-06-26T12:19:10;8.40;;;6.22;;
6463;SDS011;3265;42.694;23.282;2023-06-26T12:21:49;7.57;;;5.70;;
6463;SDS011;3265;42.694;23.282;2023-06-26T12:24:20;11.10;;;6.00;;
6463;SDS011;3265;42.694;23.282;2023-06-26T12:26:49;12.07;;;6.32;;
6463;SDS011;3265;42.694;23.282;2023-06-26T12:29:19;9.98;;;6.55;;
6463;SDS011;3265;42.694;23.282;2023-06-26T12:31:49;8.40;;;6.25;;
6463;SDS011;3265;42.694;23.282;2023-06-26T12:34:18;8.27;;;6.68;;
6463;SDS011;3265;42.694;23.282;2023-06-26T12:36:47;12.55;;;6.78;;
6463;SDS011;3265;42.694;23.282;2023-06-26T12:39:15;10.85;;;6.40;;
6463;SDS011;3265;42.694;23.282;2023-06-26T12:41:51;10.30;;;6.38;;
6463;SDS011;3265;42.694;23.282;2023-06-26T12:44:20;9.20;;;6.43;;
6463;SDS011;3265;42.694;23.282;2023-06-26T12:46:48;11.35;;;7.53;;
6463;SDS011;3265;42.694;23.282;2023-06-26T12:49:16;11.88;;;7.32;;
6463;SDS011;3265;42.694;23.282;2023-06-26T12:51:44;11.48;;;6.88;;
6463;SDS011;3265;42.694;23.282;2023-06-26T12:54:11;15.38;;;7.00;;
6463;SDS011;3265;42.694;23.282;2023-06-26T12:56:38;10.48;;;7.13;;
6463;SDS011;3265;42.694;23.282;2023-06-26T12:59:06;12.73;;;7.32;;
6463;SDS011;3265;42.694;23.282;2023-06-26T13:01:33;9.52;;;6.82;;
6463;SDS011;3265;42.694;23.282;2023-06-26T13:04:00;9.88;;;7.20;;
6463;SDS011;3265;42.694;23.282;2023-06-26T13:06:28;11.15;;;7.50;;
6463;SDS011;3265;42.694;23.282;2023-06-26T13:08:55;12.15;;;6.80;;
6463;SDS011;3265;42.694;23.282;2023-06-26T13:11:22;10.10;;;6.80;;
6463;SDS011;3265;42.694;23.282;2023-06-26T13:13:49;12.35;;;6.68;;
6463;SDS011;3265;42.694;23.282;2023-06-26T13:16:17;10.27;;;7.00;;
6463;SDS011;3265;42.694;23.282;2023-06-26T13:18:44;19.92;;;8.00;;
6463;SDS011;3265;42.694;23.282;2023-06-26T13:21:12;16.48;;;6.93;;
6463;SDS011;3265;42.694;23.282;2023-06-26T13:23:39;66.18;;;10.13;;
6463;SDS011;3265;42.694;23.282;2023-06-26T13:26:06;17.25;;;7.20;;
6463;SDS011;3265;42.694;23.282;2023-06-26T13:28:33;11.93;;;6.60;;
6463;SDS011;3265;42.694;23.282;2023-06-26T13:31:00;16.05;;;7.03;;
6463;SDS011;3265;42.694;23.282;2023-06-26T13:33:28;12.88;;;6.30;;
6463;SDS011;3265;42.694;23.282;2023-06-26T13:35:55;9.85;;;6.38;;
6463;SDS011;3265;42.694;23.282;2023-06-26T13:38:23;11.48;;;6.10;;
6463;SDS011;3265;42.694;23.282;2023-06-26T13:40:51;10.40;;;6.35;;
6463;SDS011;3265;42.694;23.282;2023-06-26T13:43:18;11.23;;;6.55;;
6463;SDS011;3265;42.694;23.282;2023-06-26T13:45:45;8.18;;;6.53;;
6463;SDS011;3265;42.694;23.282;2023-06-26T13:48:11;10.20;;;6.78;;
6463;SDS011;3265;42.694;23.282;2023-06-26T13:50:40;8.95;;;5.90;;
6463;SDS011;3265;42.694;23.282;2023-06-26T13:53:06;9.80;;;6.25;;
6463;SDS011;3265;42.694;23.282;2023-06-26T13:55:33;13.40;;;7.15;;
6463;SDS011;3265;42.694;23.282;2023-06-26T13:58:03;21.30;;;8.05;;
6463;SDS011;3265;42.694;23.282;2023-06-26T14:00:31;12.70;;;8.82;;
6463;SDS011;3265;42.694;23.282;2023-06-26T14:02:58;14.55;;;9.25;;
6463;SDS011;3265;42.694;23.282;2023-06-26T14:05:25;17.33;;;9.25;;
6463;SDS011;3265;42.694;23.282;2023-06-26T14:07:53;15.48;;;8.77;;
6463;SDS011;3265;42.694;23.282;2023-06-26T14:10:20;14.95;;;10.65;;
6463;SDS011;3265;42.694;23.282;2023-06-26T14:12:47;14.52;;;10.75;;
6463;SDS011;3265;42.694;23.282;2023-06-26T14:15:14;19.80;;;8.60;;
6463;SDS011;3265;42.694;23.282;2023-06-26T14:17:41;8.15;;;6.70;;
6463;SDS011;3265;42.694;23.282;2023-06-26T14:20:08;10.05;;;6.57;;
6463;SDS011;3265;42.694;23.282;2023-06-26T14:22:37;8.32;;;5.85;;
6463;SDS011;3265;42.694;23.282;2023-06-26T14:25:06;7.35;;;6.07;;
6463;SDS011;3265;42.694;23.282;2023-06-26T14:27:33;8.63;;;6.28;;
6463;SDS011;3265;42.694;23.282;2023-06-26T14:30:00;8.65;;;6.30;;
6463;SDS011;3265;42.694;23.282;2023-06-26T14:32:27;15.07;;;7.20;;
6463;SDS011;3265;42.694;23.282;2023-06-26T14:34:54;9.48;;;6.97;;
6463;SDS011;3265;42.694;23.282;2023-06-26T14:37:21;15.63;;;7.10;;
6463;SDS011;3265;42.694;23.282;2023-06-26T14:39:49;14.77;;;7.40;;
6463;SDS011;3265;42.694;23.282;2023-06-26T14:42:17;16.15;;;7.32;;
6463;SDS011;3265;42.694;23.282;2023-06-26T14:44:44;11.70;;;6.72;;
6463;SDS011;3265;42.694;23.282;2023-06-26T14:47:12;9.18;;;6.05;;